Time;durP1;ratioP1;P1;durP2;ratioP2;P2;SDS_P1;SDS_P2;PMS_P1;PMS_P2;Temp;Humidity;BMP_temperature;BMP_pressure;BME280_temperature;BME280_humidity;BME280_pressure;Samples;Min_cycle;Max_cycle;Signal;HPM_P1;HPM_P2
2021/05/26 00:02:11;;;;;;;3.10;0.52;;;8.90;99.90;;;;;;4957558;28;20285;-74
2021/05/26 00:04:37;;;;;;;5.32;1.10;;;9.00;99.90;;;;;;4960759;28;20588;-75
2021/05/26 00:07:02;;;;;;;3.20;0.60;;;8.90;99.90;;;;;;4958388;28;20041;-75
2021/05/26 00:09:28;;;;;;;5.00;1.45;;;9.00;99.90;;;;;;4957101;28;20035;-75
2021/05/26 00:11:54;;;;;;;4.45;2.15;;;9.00;99.90;;;;;;4957926;28;20046;-74
2021/05/26 00:14:19;;;;;;;8.68;3.20;;;9.00;99.90;;;;;;4957071;28;20045;-74
2021/05/26 00:16:45;;;;;;;7.13;2.88;;;9.00;99.90;;;;;;4962345;28;20414;-75
2021/05/26 00:19:11;;;;;;;3.97;0.77;;;9.00;99.90;;;;;;4958728;28;20043;-75
2021/05/26 00:21:37;;;;;;;2.50;0.65;;;8.90;99.90;;;;;;4958306;28;20030;-75
2021/05/26 00:24:03;;;;;;;3.35;0.65;;;8.90;99.90;;;;;;4957061;28;20042;-74
2021/05/26 00:26:29;;;;;;;5.25;0.98;;;8.80;99.90;;;;;;4957729;28;20035;-75
2021/05/26 00:28:55;;;;;;;3.97;1.00;;;8.80;99.90;;;;;;4964258;28;20103;-75
2021/05/26 00:31:23;;;;;;;5.80;1.10;;;8.70;99.90;;;;;;4958852;28;20043;-74
2021/05/26 00:33:49;;;;;;;4.80;1.10;;;8.70;99.90;;;;;;4962377;28;20106;-74
2021/05/26 00:36:16;;;;;;;3.10;0.60;;;8.60;99.90;;;;;;4957509;28;20130;-75
2021/05/26 00:38:42;;;;;;;4.28;0.65;;;8.60;99.90;;;;;;4963402;28;20304;-74
2021/05/26 00:41:08;;;;;;;5.53;0.63;;;8.50;99.90;;;;;;4957900;28;20039;-74
2021/05/26 00:43:33;;;;;;;2.13;0.70;;;8.60;99.90;;;;;;4958203;28;20473;-74
2021/05/26 00:45:59;;;;;;;4.78;0.60;;;8.60;99.90;;;;;;4957984;28;20377;-74
2021/05/26 00:48:25;;;;;;;6.32;0.95;;;8.70;99.90;;;;;;4965215;28;20043;-74
2021/05/26 00:50:50;;;;;;;1.50;0.50;;;8.70;99.90;;;;;;4957451;28;20465;-75
2021/05/26 00:53:16;;;;;;;4.40;0.60;;;8.40;99.90;;;;;;4964490;28;20041;-74
2021/05/26 00:55:44;;;;;;;6.20;1.13;;;8.40;99.90;;;;;;4956130;28;20032;-75
2021/05/26 00:58:11;;;;;;;3.42;0.80;;;8.30;99.90;;;;;;4964277;28;20031;-75
2021/05/26 01:00:39;;;;;;;3.20;0.60;;;8.30;99.90;;;;;;4961826;28;20047;-75
2021/05/26 01:03:06;;;;;;;3.20;0.50;;;8.50;99.90;;;;;;4960868;28;20489;-74
2021/05/26 01:05:32;;;;;;;5.78;0.75;;;8.50;99.90;;;;;;4956886;28;20038;-74
2021/05/26 01:07:58;;;;;;;3.47;0.70;;;8.40;99.90;;;;;;4961683;28;20074;-74
2021/05/26 01:10:26;;;;;;;5.07;0.65;;;8.50;99.90;;;;;;4961162;28;20038;-75
2021/05/26 01:12:53;;;;;;;4.20;0.70;;;8.40;99.90;;;;;;4959526;28;20114;-74
2021/05/26 01:15:19;;;;;;;6.38;0.90;;;8.40;99.90;;;;;;4960641;28;20487;-75
2021/05/26 01:17:45;;;;;;;4.25;0.70;;;8.40;99.90;;;;;;4959225;28;20374;-74
2021/05/26 01:20:24;;;;;;;3.10;0.57;;;8.40;99.90;;;;;;4960121;28;20038;-75
2021/05/26 01:22:51;;;;;;;3.97;0.60;;;8.50;99.90;;;;;;4965170;28;20042;-75
2021/05/26 01:25:17;;;;;;;2.63;0.40;;;8.40;99.90;;;;;;4959848;28;20034;-74
2021/05/26 01:27:43;;;;;;;3.63;0.70;;;8.40;99.90;;;;;;4960421;28;20038;-75
2021/05/26 01:30:09;;;;;;;2.88;0.60;;;8.40;99.90;;;;;;4961622;28;20058;-75
2021/05/26 01:32:48;;;;;;;2.97;0.50;;;8.50;99.90;;;;;;4961542;28;20548;-74
2021/05/26 01:35:16;;;;;;;3.65;0.60;;;8.50;99.90;;;;;;4960162;28;20038;-75
2021/05/26 01:37:44;;;;;;;2.15;0.50;;;8.30;99.90;;;;;;4959915;28;20042;-74
2021/05/26 01:40:12;;;;;;;2.33;0.50;;;8.20;99.90;;;;;;4960397;28;20031;-74
2021/05/26 01:42:39;;;;;;;4.78;0.90;;;8.20;99.90;;;;;;4958500;28;20100;-75
2021/05/26 01:45:08;;;;;;;4.65;0.70;;;8.20;99.90;;;;;;4961321;28;20473;-74
2021/05/26 01:47:34;;;;;;;4.93;1.08;;;8.30;99.90;;;;;;4957440;28;20467;-74
2021/05/26 01:49:59;;;;;;;3.72;0.50;;;8.20;99.90;;;;;;4962170;28;20035;-74
2021/05/26 01:52:25;;;;;;;3.00;0.70;;;8.20;99.90;;;;;;4958286;28;20043;-75
2021/05/26 01:54:51;;;;;;;1.52;0.50;;;8.20;99.90;;;;;;4962424;28;20043;-75
2021/05/26 01:57:16;;;;;;;4.20;0.57;;;8.20;99.90;;;;;;4957152;28;20050;-75
2021/05/26 01:59:42;;;;;;;4.70;0.70;;;8.10;99.90;;;;;;4971028;28;20038;-74
2021/05/26 02:02:08;;;;;;;4.32;0.90;;;8.10;99.90;;;;;;4971457;28;20082;-74
2021/05/26 02:04:33;;;;;;;3.90;0.50;;;8.10;99.90;;;;;;4983513;28;20142;-75
2021/05/26 02:07:01;;;;;;;5.28;0.50;;;8.00;99.90;;;;;;4990816;28;20034;-75
2021/05/26 02:09:27;;;;;;;1.85;0.57;;;8.00;99.90;;;;;;4975817;28;20357;-75
2021/05/26 02:14:37;;;;;;;1.73;0.40;;;7.90;99.90;;;;;;4983318;28;20193;-75
2021/05/26 02:17:03;;;;;;;3.17;0.80;;;7.80;99.90;;;;;;4975743;28;20105;-75
2021/05/26 02:19:28;;;;;;;3.97;0.90;;;7.80;99.90;;;;;;4968538;28;20043;-75
2021/05/26 02:21:54;;;;;;;6.40;0.68;;;7.90;99.90;;;;;;4991805;28;20034;-75
2021/05/26 02:24:19;;;;;;;2.88;0.60;;;7.80;99.90;;;;;;4970289;28;20077;-74
2021/05/26 02:26:45;;;;;;;4.10;0.50;;;7.80;99.90;;;;;;4971134;28;20108;-75
2021/05/26 02:29:11;;;;;;;3.03;0.50;;;7.70;99.90;;;;;;4970068;28;20055;-75
2021/05/26 02:31:36;;;;;;;4.00;0.93;;;7.80;99.90;;;;;;4951664;29;20030;-74
2021/05/26 02:34:02;;;;;;;4.15;0.82;;;7.80;99.90;;;;;;4977042;28;20488;-74
2021/05/26 02:36:28;;;;;;;2.88;0.82;;;7.80;99.90;;;;;;4951154;28;20038;-75
2021/05/26 02:38:53;;;;;;;3.20;0.70;;;7.80;99.90;;;;;;4959846;28;20031;-75
2021/05/26 02:41:19;;;;;;;2.78;0.75;;;7.80;99.90;;;;;;4970754;28;20806;-74
2021/05/26 02:43:44;;;;;;;2.80;0.70;;;7.80;99.90;;;;;;4970153;28;20042;-75
2021/05/26 02:46:10;;;;;;;3.08;0.65;;;7.80;99.90;;;;;;4970734;28;20542;-75
2021/05/26 02:48:36;;;;;;;2.92;0.77;;;7.60;99.90;;;;;;4969332;28;20141;-74
2021/05/26 02:51:01;;;;;;;6.25;1.10;;;7.60;99.90;;;;;;4970545;28;20058;-74
2021/05/26 02:53:27;;;;;;;4.00;0.50;;;7.70;99.90;;;;;;4969302;28;20441;-74
2021/05/26 02:55:52;;;;;;;4.47;0.70;;;7.70;99.90;;;;;;4970654;28;20030;-75
2021/05/26 02:58:19;;;;;;;2.42;0.50;;;7.70;99.90;;;;;;4970336;28;20049;-75
2021/05/26 03:00:44;;;;;;;2.45;0.68;;;7.70;99.90;;;;;;4969431;28;20031;-75
2021/05/26 03:03:10;;;;;;;4.75;0.77;;;7.50;99.90;;;;;;4969781;28;20380;-75
2021/05/26 03:05:35;;;;;;;5.43;0.93;;;7.60;99.90;;;;;;4964469;28;20050;-74
2021/05/26 03:08:01;;;;;;;5.10;1.13;;;7.60;99.90;;;;;;4970509;28;20039;-75
2021/05/26 03:10:27;;;;;;;10.55;1.45;;;7.60;99.90;;;;;;4969838;28;20660;-74
2021/05/26 03:12:52;;;;;;;4.40;0.85;;;7.60;99.90;;;;;;4970003;28;20050;-74
2021/05/26 03:15:19;;;;;;;3.90;0.88;;;7.50;99.90;;;;;;4969191;28;20046;-74
2021/05/26 03:17:45;;;;;;;6.88;1.10;;;7.50;99.90;;;;;;4970297;28;20370;-75
2021/05/26 03:20:13;;;;;;;5.40;0.90;;;7.40;99.90;;;;;;4968163;28;20055;-75
2021/05/26 03:22:40;;;;;;;3.85;0.80;;;7.20;99.90;;;;;;4970284;28;20478;-75
2021/05/26 03:25:07;;;;;;;6.97;0.93;;;7.20;99.90;;;;;;4969234;28;20042;-75
2021/05/26 03:27:37;;;;;;;5.45;0.90;;;7.20;99.90;;;;;;4969348;28;20027;-75
2021/05/26 03:30:07;;;;;;;5.25;0.63;;;7.20;99.90;;;;;;4970111;28;20117;-74
2021/05/26 03:32:33;;;;;;;2.05;0.40;;;7.30;99.90;;;;;;4966302;28;20081;-74
2021/05/26 03:34:59;;;;;;;3.60;0.50;;;7.30;99.90;;;;;;4968374;28;20038;-74
2021/05/26 03:37:25;;;;;;;3.95;1.13;;;7.40;99.90;;;;;;4969317;28;20425;-75
2021/05/26 03:39:50;;;;;;;4.30;1.25;;;7.40;99.90;;;;;;4967943;28;20081;-75
2021/05/26 03:42:16;;;;;;;4.32;0.70;;;7.40;99.90;;;;;;4969480;28;20031;-75
2021/05/26 03:44:41;;;;;;;8.32;0.75;;;7.30;99.90;;;;;;4969287;28;20039;-75
2021/05/26 03:47:07;;;;;;;4.93;0.93;;;7.30;99.90;;;;;;4962255;28;20481;-75
2021/05/26 03:49:33;;;;;;;5.10;0.77;;;7.20;99.90;;;;;;4966037;28;20122;-74
2021/05/26 03:51:59;;;;;;;4.80;0.93;;;7.20;99.90;;;;;;4964929;28;20050;-74
2021/05/26 03:54:24;;;;;;;4.63;0.70;;;7.10;99.90;;;;;;4969237;28;20041;-75
2021/05/26 03:56:50;;;;;;;4.63;0.80;;;7.10;99.90;;;;;;4970209;28;20113;-75
2021/05/26 03:59:16;;;;;;;6.55;0.70;;;7.10;99.90;;;;;;4969040;28;20425;-74
2021/05/26 04:01:42;;;;;;;3.05;0.60;;;7.10;99.90;;;;;;4973627;28;20030;-74
2021/05/26 04:04:07;;;;;;;2.30;0.40;;;7.20;99.90;;;;;;4973002;28;20703;-75
2021/05/26 04:06:34;;;;;;;3.08;0.88;;;7.30;99.90;;;;;;4973925;28;20085;-75
2021/05/26 04:09:00;;;;;;;5.07;0.93;;;7.30;99.90;;;;;;4971051;28;20042;-74
2021/05/26 04:11:26;;;;;;;2.42;0.60;;;7.20;99.90;;;;;;4973250;28;20035;-75
2021/05/26 04:13:51;;;;;;;4.35;0.90;;;7.10;99.90;;;;;;4968055;28;20039;-74
2021/05/26 04:16:17;;;;;;;4.82;0.82;;;7.10;99.90;;;;;;4985430;28;20027;-74
2021/05/26 04:18:43;;;;;;;4.20;0.52;;;7.20;99.90;;;;;;4973448;28;20038;-74
2021/05/26 04:21:08;;;;;;;5.47;1.05;;;7.20;99.90;;;;;;4957510;28;20023;-74
2021/05/26 04:23:34;;;;;;;4.43;0.80;;;7.30;99.90;;;;;;4954131;29;20454;-75
2021/05/26 04:26:00;;;;;;;4.95;0.80;;;7.30;99.90;;;;;;4965663;28;20077;-74
2021/05/26 04:28:26;;;;;;;4.50;0.90;;;7.30;99.90;;;;;;4971949;28;20057;-75
2021/05/26 04:30:51;;;;;;;3.13;0.70;;;7.10;99.90;;;;;;4972283;28;20022;-74
2021/05/26 04:33:17;;;;;;;4.63;1.00;;;7.20;99.90;;;;;;4964241;28;20350;-75
2021/05/26 04:35:44;;;;;;;3.30;0.80;;;7.20;99.90;;;;;;4968194;28;20481;-74
2021/05/26 04:38:11;;;;;;;5.90;0.77;;;7.30;99.90;;;;;;4953203;29;20028;-74
2021/05/26 04:40:37;;;;;;;2.50;0.63;;;7.30;99.90;;;;;;4977891;28;20029;-75
2021/05/26 04:43:02;;;;;;;5.93;1.00;;;7.30;99.90;;;;;;4977355;28;20035;-75
2021/05/26 04:45:28;;;;;;;3.90;0.85;;;7.40;99.90;;;;;;4961208;28;20035;-74
2021/05/26 04:47:54;;;;;;;4.22;1.00;;;7.20;99.90;;;;;;4958551;28;20122;-74
2021/05/26 04:50:20;;;;;;;5.18;1.05;;;7.40;99.90;;;;;;4972131;28;20138;-75
2021/05/26 04:52:46;;;;;;;5.70;0.77;;;7.30;99.90;;;;;;4972115;28;20126;-74
2021/05/26 04:55:12;;;;;;;3.30;0.70;;;7.60;99.90;;;;;;4972320;28;20122;-75
2021/05/26 04:57:37;;;;;;;5.18;0.73;;;8.10;99.90;;;;;;4963651;28;20042;-75
2021/05/26 05:00:07;;;;;;;3.00;0.43;;;8.50;99.90;;;;;;4971885;28;20038;-75
2021/05/26 05:02:32;;;;;;;1.38;0.40;;;8.70;99.90;;;;;;4953136;28;20115;-75
2021/05/26 05:04:58;;;;;;;5.28;0.70;;;9.10;99.90;;;;;;4958590;28;20106;-75
2021/05/26 05:07:24;;;;;;;9.70;1.00;;;9.50;99.90;;;;;;4986627;28;20034;-74
2021/05/26 05:09:49;;;;;;;4.50;1.50;;;9.80;99.90;;;;;;4971881;28;20096;-75
2021/05/26 05:12:15;;;;;;;8.57;1.48;;;10.20;99.90;;;;;;4969061;28;20055;-74
2021/05/26 05:14:41;;;;;;;9.07;1.98;;;10.30;99.90;;;;;;4972073;28;20035;-75
2021/05/26 05:17:06;;;;;;;6.75;1.77;;;10.50;99.90;;;;;;4985868;28;20031;-75
2021/05/26 05:19:32;;;;;;;5.72;1.20;;;10.70;99.90;;;;;;4972218;28;20064;-75
2021/05/26 05:21:58;;;;;;;3.50;1.08;;;10.90;99.90;;;;;;4981056;28;20027;-75
2021/05/26 05:24:24;;;;;;;4.18;1.15;;;11.10;99.90;;;;;;4984437;28;20054;-75
2021/05/26 05:26:50;;;;;;;7.20;1.00;;;11.30;99.90;;;;;;4958102;28;20487;-75
2021/05/26 05:29:15;;;;;;;5.10;1.00;;;11.50;99.90;;;;;;4968183;28;20046;-75
2021/05/26 05:31:41;;;;;;;3.65;0.52;;;11.50;99.90;;;;;;4971675;28;20041;-75
2021/05/26 05:34:07;;;;;;;3.47;0.52;;;11.40;99.90;;;;;;4970406;28;20084;-76
2021/05/26 05:36:32;;;;;;;5.03;0.50;;;11.60;99.90;;;;;;4962600;28;20135;-76
2021/05/26 05:38:58;;;;;;;2.97;0.80;;;11.40;99.90;;;;;;4971359;28;20442;-75
2021/05/26 05:41:24;;;;;;;2.85;0.70;;;11.20;99.90;;;;;;4971566;28;20031;-75
2021/05/26 05:43:49;;;;;;;3.60;0.50;;;11.10;99.90;;;;;;4966333;28;20042;-75
2021/05/26 05:46:15;;;;;;;2.80;0.70;;;11.20;99.90;;;;;;4961487;28;20028;-75
2021/05/26 05:48:41;;;;;;;2.42;0.68;;;11.70;99.90;;;;;;4959866;28;20124;-74
2021/05/26 05:51:06;;;;;;;6.50;1.00;;;12.10;99.90;;;;;;4966823;28;20038;-75
2021/05/26 05:53:32;;;;;;;5.00;1.25;;;12.20;99.90;;;;;;4968259;28;20468;-75
2021/05/26 05:56:00;;;;;;;9.55;0.90;;;12.40;99.90;;;;;;4982222;28;20465;-74
2021/05/26 05:58:26;;;;;;;6.78;1.20;;;12.40;99.90;;;;;;4958485;28;20034;-75
2021/05/26 06:00:52;;;;;;;1.90;0.60;;;12.50;99.90;;;;;;4970585;28;20026;-75
2021/05/26 06:03:18;;;;;;;4.20;0.70;;;12.20;99.90;;;;;;4969919;28;20062;-75
2021/05/26 06:05:44;;;;;;;3.58;1.05;;;12.70;99.90;;;;;;4969945;28;20045;-75
2021/05/26 06:08:09;;;;;;;3.08;1.10;;;12.90;99.90;;;;;;4970777;28;20142;-75
2021/05/26 06:10:35;;;;;;;5.22;1.20;;;12.90;99.90;;;;;;4969709;28;20105;-75
2021/05/26 06:13:06;;;;;;;2.15;0.50;;;13.00;99.90;;;;;;4968287;28;20050;-75
2021/05/26 06:15:31;;;;;;;6.28;1.05;;;13.00;99.90;;;;;;4965998;28;20033;-75
2021/05/26 06:18:00;;;;;;;7.72;0.80;;;13.10;99.90;;;;;;4963685;28;20038;-75
2021/05/26 06:20:26;;;;;;;2.13;0.60;;;12.60;99.90;;;;;;4983780;28;20150;-75
2021/05/26 06:22:53;;;;;;;2.67;0.82;;;12.80;99.90;;;;;;4967015;28;20535;-75
2021/05/26 06:25:18;;;;;;;3.70;0.95;;;13.30;99.90;;;;;;4969520;28;20346;-74
2021/05/26 06:27:44;;;;;;;5.20;1.40;;;13.80;99.90;;;;;;4968970;28;20070;-75
2021/05/26 06:30:10;;;;;;;8.70;2.03;;;14.20;99.90;;;;;;4970919;28;20058;-75
2021/05/26 06:32:36;;;;;;;4.70;1.42;;;14.30;99.90;;;;;;4967529;28;20039;-75
2021/05/26 06:35:03;;;;;;;4.60;1.20;;;14.50;99.90;;;;;;4968088;28;20035;-75
2021/05/26 06:37:29;;;;;;;4.68;0.90;;;14.60;99.90;;;;;;4969735;28;20041;-75
2021/05/26 06:39:54;;;;;;;5.00;0.80;;;14.30;99.90;;;;;;4969574;28;20034;-75
2021/05/26 06:42:20;;;;;;;2.30;0.70;;;14.20;99.90;;;;;;4968230;28;20022;-74
2021/05/26 06:44:46;;;;;;;2.45;0.75;;;13.40;99.90;;;;;;4959419;28;20485;-75
2021/05/26 06:47:11;;;;;;;6.53;0.98;;;14.00;99.80;;;;;;4983051;28;20027;-75
2021/05/26 06:49:37;;;;;;;3.22;0.60;;;14.00;99.90;;;;;;4969922;28;20052;-75
2021/05/26 06:52:03;;;;;;;4.60;0.95;;;13.90;99.90;;;;;;4968027;28;20473;-75
2021/05/26 06:54:28;;;;;;;4.05;1.33;;;14.00;99.90;;;;;;4966500;28;20077;-75
2021/05/26 06:56:54;;;;;;;3.50;1.08;;;14.30;99.90;;;;;;4964699;28;20038;-76
2021/05/26 06:59:21;;;;;;;4.40;1.08;;;14.30;99.90;;;;;;4962094;28;20141;-75
2021/05/26 07:01:47;;;;;;;1.98;0.73;;;14.00;99.60;;;;;;4969134;28;20039;-75
2021/05/26 07:04:12;;;;;;;3.35;0.70;;;13.50;99.90;;;;;;4968451;28;20049;-75
2021/05/26 07:06:38;;;;;;;7.13;0.82;;;13.90;99.90;;;;;;4965585;28;20038;-76
2021/05/26 07:09:04;;;;;;;3.22;0.65;;;14.10;99.60;;;;;;4969993;28;20034;-75
2021/05/26 07:11:29;;;;;;;6.80;0.90;;;14.10;99.50;;;;;;4967521;28;20034;-75
2021/05/26 07:13:55;;;;;;;4.38;0.50;;;14.00;99.50;;;;;;4964679;28;20092;-75
2021/05/26 07:16:21;;;;;;;5.18;0.70;;;14.40;97.10;;;;;;4968291;28;20670;-75
2021/05/26 07:18:48;;;;;;;4.05;0.95;;;14.90;97.50;;;;;;4969947;28;20046;-75
2021/05/26 07:21:15;;;;;;;2.45;0.52;;;15.10;96.90;;;;;;4966509;28;20634;-75
2021/05/26 07:23:40;;;;;;;2.67;0.68;;;15.50;95.60;;;;;;4969338;28;20043;-75
2021/05/26 07:26:07;;;;;;;4.57;0.80;;;15.50;95.20;;;;;;4968495;28;20046;-75
2021/05/26 07:28:32;;;;;;;5.05;0.60;;;14.70;95.90;;;;;;4964225;28;20477;-75
2021/05/26 07:30:58;;;;;;;3.83;1.00;;;15.10;95.30;;;;;;4966361;28;20031;-75
2021/05/26 07:33:24;;;;;;;4.82;0.70;;;14.80;95.50;;;;;;4965269;28;20039;-75
2021/05/26 07:35:49;;;;;;;10.07;1.02;;;15.00;96.40;;;;;;4965933;28;20054;-76
2021/05/26 07:38:15;;;;;;;4.60;0.80;;;15.40;97.10;;;;;;4970260;28;20516;-75
2021/05/26 07:40:41;;;;;;;4.28;0.60;;;16.00;95.80;;;;;;4969941;28;20780;-75
2021/05/26 07:43:06;;;;;;;6.40;1.10;;;15.80;94.60;;;;;;4971857;28;20038;-76
2021/05/26 07:45:32;;;;;;;3.15;0.77;;;15.40;95.90;;;;;;4978608;23;20063;-74
2021/05/26 07:47:58;;;;;;;4.10;0.98;;;15.40;96.00;;;;;;4971234;28;20139;-75
2021/05/26 07:50:24;;;;;;;6.15;1.00;;;15.10;96.10;;;;;;4977748;28;20038;-75
2021/05/26 07:52:50;;;;;;;7.18;1.20;;;15.50;97.30;;;;;;4967837;28;20065;-75
2021/05/26 07:55:15;;;;;;;4.03;0.80;;;16.30;94.90;;;;;;4970924;28;20074;-75
2021/05/26 07:57:42;;;;;;;3.60;0.90;;;16.80;94.70;;;;;;4971478;28;20069;-74
2021/05/26 08:00:09;;;;;;;4.22;0.70;;;17.40;93.10;;;;;;4972103;28;20038;-75
2021/05/26 08:02:35;;;;;;;4.47;1.00;;;17.90;93.00;;;;;;4973174;28;20031;-75
2021/05/26 08:05:00;;;;;;;4.35;1.13;;;18.10;91.60;;;;;;4969501;28;20069;-75
2021/05/26 08:07:26;;;;;;;2.85;0.80;;;18.10;89.90;;;;;;4967877;28;20365;-75
2021/05/26 08:09:51;;;;;;;3.28;0.88;;;17.40;91.30;;;;;;4973378;28;20353;-76
2021/05/26 08:12:17;;;;;;;4.93;0.70;;;17.70;89.90;;;;;;4970177;28;20034;-75
2021/05/26 08:14:43;;;;;;;2.80;0.77;;;17.80;90.70;;;;;;4972084;28;20046;-75
2021/05/26 08:17:09;;;;;;;1.33;0.60;;;17.90;91.10;;;;;;4971125;28;20118;-75
2021/05/26 08:19:34;;;;;;;4.60;0.85;;;17.80;87.60;;;;;;4971518;28;20038;-75
2021/05/26 08:22:00;;;;;;;4.32;0.80;;;17.80;89.00;;;;;;4971914;28;20101;-75
2021/05/26 08:24:26;;;;;;;7.78;0.85;;;18.50;87.10;;;;;;4970681;28;20038;-75
2021/05/26 08:26:52;;;;;;;5.68;0.70;;;19.20;86.00;;;;;;4972069;28;20110;-75
2021/05/26 08:29:18;;;;;;;3.22;0.80;;;19.30;83.00;;;;;;4968711;28;20037;-76
2021/05/26 08:31:44;;;;;;;3.80;0.80;;;18.70;84.70;;;;;;4968925;28;20035;-75
2021/05/26 08:34:10;;;;;;;11.13;1.17;;;18.60;82.40;;;;;;4964536;28;20035;-75
2021/05/26 08:36:36;;;;;;;5.53;1.05;;;18.20;83.90;;;;;;4965995;28;20034;-76
2021/05/26 08:39:02;;;;;;;5.72;1.00;;;17.30;84.50;;;;;;4963100;28;20468;-75
2021/05/26 08:41:28;;;;;;;4.88;0.90;;;17.60;86.50;;;;;;4971254;28;20076;-75
2021/05/26 08:43:55;;;;;;;3.05;0.80;;;17.90;82.10;;;;;;4972358;28;20043;-75
2021/05/26 08:46:22;;;;;;;2.97;0.90;;;18.30;82.60;;;;;;4967016;28;20118;-75
2021/05/26 08:48:51;;;;;;;2.90;0.65;;;18.30;82.30;;;;;;4972653;28;20038;-75
2021/05/26 08:51:18;;;;;;;3.55;0.50;;;17.80;81.30;;;;;;4991516;28;20031;-76
2021/05/26 08:53:44;;;;;;;1.90;0.50;;;18.50;77.90;;;;;;4969814;28;20065;-75
2021/05/26 08:56:09;;;;;;;2.45;0.60;;;18.60;77.80;;;;;;4965735;28;20027;-75
2021/05/26 08:58:42;;;;;;;1.63;0.55;;;19.10;79.10;;;;;;4967034;28;20037;-76
2021/05/26 09:01:08;;;;;;;2.00;0.52;;;18.40;75.50;;;;;;4964206;28;20034;-75
2021/05/26 09:03:35;;;;;;;2.80;0.70;;;18.70;73.50;;;;;;4976810;28;20508;-76
2021/05/26 09:06:01;;;;;;;2.17;0.45;;;18.80;70.70;;;;;;4967012;28;20134;-75
2021/05/26 09:08:27;;;;;;;2.67;0.80;;;18.60;72.10;;;;;;4970797;28;20026;-76
2021/05/26 09:11:03;;;;;;;4.13;0.63;;;18.60;71.20;;;;;;4963770;28;20023;-75
2021/05/26 09:13:36;;;;;;;4.75;0.43;;;18.30;74.00;;;;;;4968655;28;20054;-75
2021/05/26 09:16:06;;;;;;;4.82;0.50;;;17.70;74.30;;;;;;4966908;28;20026;-75
2021/05/26 09:18:59;;;;;;;2.15;0.40;;;18.20;72.80;;;;;;4967621;28;20022;-75
2021/05/26 09:21:42;;;;;;;4.43;0.57;;;17.60;73.90;;;;;;4980459;28;20049;-76
2021/05/26 09:24:20;;;;;;;0.93;0.30;;;17.90;75.80;;;;;;4963076;28;20038;-75
2021/05/26 09:27:05;;;;;;;1.63;0.30;;;18.00;76.40;;;;;;4970840;28;20066;-75
2021/05/26 09:29:43;;;;;;;2.70;0.40;;;17.90;75.20;;;;;;4968434;28;20038;-75
2021/05/26 09:32:13;;;;;;;2.08;0.50;;;17.40;76.50;;;;;;4967690;28;20071;-76
2021/05/26 09:34:41;;;;;;;2.90;0.40;;;17.70;74.50;;;;;;4983985;28;20085;-75
2021/05/26 09:37:11;;;;;;;2.30;0.30;;;17.90;72.20;;;;;;4982604;28;20042;-75
2021/05/26 09:39:49;;;;;;;1.10;0.30;;;18.60;73.00;;;;;;4976534;28;20053;-75
2021/05/26 09:42:30;;;;;;;4.93;0.40;;;18.70;71.90;;;;;;4997462;28;20042;-76
2021/05/26 09:45:16;;;;;;;1.30;0.30;;;19.60;73.60;;;;;;4958530;28;20055;-75
2021/05/26 09:47:43;;;;;;;1.60;0.30;;;20.10;72.30;;;;;;4970034;28;20047;-75
2021/05/26 09:50:24;;;;;;;2.33;0.43;;;20.20;71.50;;;;;;4961161;28;20110;-76
2021/05/26 09:53:19;;;;;;;2.60;0.30;;;20.80;67.40;;;;;;4962969;28;20489;-75
2021/05/26 09:55:46;;;;;;;3.05;0.50;;;21.30;66.00;;;;;;4963203;28;20128;-76
2021/05/26 09:58:16;;;;;;;6.57;0.47;;;21.80;66.70;;;;;;4984282;28;20031;-75
2021/05/26 10:00:47;;;;;;;1.50;0.30;;;22.10;66.50;;;;;;4959610;28;20039;-76
2021/05/26 10:03:13;;;;;;;2.53;0.50;;;22.00;63.20;;;;;;4962772;28;20054;-75
2021/05/26 10:05:39;;;;;;;2.60;0.50;;;22.30;62.10;;;;;;4966552;28;20023;-75
2021/05/26 10:08:12;;;;;;;2.90;0.60;;;21.90;64.30;;;;;;4976556;28;20077;-75
2021/05/26 10:10:40;;;;;;;1.95;0.38;;;20.90;63.90;;;;;;4966063;28;20031;-75
2021/05/26 10:13:10;;;;;;;3.10;0.50;;;21.80;65.80;;;;;;4997804;28;20050;-75
2021/05/26 10:15:36;;;;;;;2.42;0.60;;;22.00;66.90;;;;;;4970765;28;20031;-76
2021/05/26 10:18:02;;;;;;;1.23;0.45;;;21.40;66.20;;;;;;4970332;28;20034;-75
2021/05/26 10:20:37;;;;;;;2.70;0.50;;;20.80;66.60;;;;;;4966176;28;20043;-75
2021/05/26 10:23:05;;;;;;;2.85;0.40;;;20.40;68.50;;;;;;4960687;28;20046;-76
2021/05/26 10:25:31;;;;;;;6.70;0.40;;;20.60;67.50;;;;;;4970399;28;20035;-75
2021/05/26 10:27:58;;;;;;;4.90;0.50;;;21.10;70.00;;;;;;4982951;28;20045;-75
2021/05/26 10:30:29;;;;;;;1.85;0.35;;;21.10;69.30;;;;;;4967622;28;20042;-75
2021/05/26 10:33:03;;;;;;;3.60;0.80;;;21.10;69.80;;;;;;4969291;28;20051;-76
2021/05/26 10:35:30;;;;;;;5.43;0.75;;;20.40;71.60;;;;;;4969377;28;20118;-75
2021/05/26 10:38:06;;;;;;;2.17;0.40;;;20.50;71.90;;;;;;4968984;28;20102;-75
2021/05/26 10:40:41;;;;;;;1.88;0.30;;;20.60;69.50;;;;;;4966441;28;20113;-75
2021/05/26 10:43:13;;;;;;;1.48;0.40;;;20.50;70.60;;;;;;4970045;28;20035;-76
2021/05/26 10:45:39;;;;;;;4.65;0.50;;;20.90;72.30;;;;;;4966248;28;20622;-75
2021/05/26 10:48:06;;;;;;;2.33;0.60;;;20.20;74.10;;;;;;4969280;28;20038;-75
2021/05/26 10:50:52;;;;;;;4.55;0.60;;;20.10;73.70;;;;;;4973936;28;20798;-76
2021/05/26 10:53:18;;;;;;;4.80;0.50;;;20.50;75.40;;;;;;4974135;28;20039;-75
2021/05/26 10:55:48;;;;;;;2.33;0.40;;;21.00;73.50;;;;;;4952680;28;20081;-75
2021/05/26 10:58:24;;;;;;;2.00;0.52;;;21.10;71.70;;;;;;4969280;28;20899;-75
2021/05/26 11:01:10;;;;;;;3.35;0.43;;;21.00;74.70;;;;;;4963109;28;20047;-76
2021/05/26 11:03:41;;;;;;;1.55;0.35;;;21.00;72.10;;;;;;4961821;28;20041;-75
2021/05/26 11:06:10;;;;;;;2.92;0.50;;;20.90;71.50;;;;;;4962905;28;20051;-75
2021/05/26 11:08:48;;;;;;;2.13;0.50;;;21.40;73.60;;;;;;4967059;28;20134;-75
2021/05/26 11:11:38;;;;;;;1.63;0.40;;;20.80;73.20;;;;;;4964569;28;20038;-75
2021/05/26 11:14:10;;;;;;;4.15;0.70;;;21.60;71.90;;;;;;4953625;28;20793;-75
2021/05/26 11:16:36;;;;;;;1.77;0.40;;;20.90;72.70;;;;;;4983797;28;20546;-75
2021/05/26 11:19:10;;;;;;;5.00;0.43;;;21.00;73.10;;;;;;4969078;28;20050;-75
2021/05/26 11:21:36;;;;;;;3.15;0.50;;;21.40;72.40;;;;;;4983785;28;20087;-75
2021/05/26 11:24:01;;;;;;;1.83;0.50;;;21.00;73.50;;;;;;4977841;28;20075;-75
2021/05/26 11:26:35;;;;;;;1.92;0.50;;;20.80;76.30;;;;;;4978803;28;20043;-76
2021/05/26 11:29:02;;;;;;;2.83;0.50;;;21.10;76.40;;;;;;4976880;28;20043;-75
2021/05/26 11:31:27;;;;;;;5.07;0.30;;;21.50;77.00;;;;;;4957825;28;20610;-75
2021/05/26 11:33:57;;;;;;;4.45;0.90;;;21.60;74.40;;;;;;4968642;28;20038;-75
2021/05/26 11:36:45;;;;;;;2.03;0.50;;;21.40;74.90;;;;;;4968659;28;20090;-75
2021/05/26 11:39:35;;;;;;;2.42;0.52;;;21.60;76.40;;;;;;4981776;28;20892;-75
2021/05/26 11:42:12;;;;;;;1.40;0.30;;;21.80;75.80;;;;;;4966697;28;20031;-75
2021/05/26 11:44:39;;;;;;;2.85;0.32;;;21.80;74.60;;;;;;4969733;28;20113;-75
2021/05/26 11:47:06;;;;;;;3.35;0.50;;;21.80;74.30;;;;;;4967134;28;20102;-75
2021/05/26 11:49:33;;;;;;;4.43;0.77;;;22.00;74.00;;;;;;4964453;28;20062;-75
2021/05/26 11:52:10;;;;;;;5.50;0.40;;;22.30;74.70;;;;;;4966535;28;20031;-75
2021/05/26 11:54:54;;;;;;;2.65;0.60;;;22.10;74.10;;;;;;4966849;28;20468;-75
2021/05/26 11:57:20;;;;;;;5.75;0.30;;;22.30;74.70;;;;;;4966656;28;20038;-75
2021/05/26 11:59:52;;;;;;;3.50;0.50;;;22.40;73.30;;;;;;4985640;28;20080;-75
2021/05/26 12:02:18;;;;;;;5.70;0.60;;;22.60;73.30;;;;;;4959758;28;20032;-75
2021/05/26 12:04:44;;;;;;;2.67;0.55;;;22.60;72.00;;;;;;4964927;28;20153;-75
2021/05/26 12:07:10;;;;;;;4.40;0.50;;;22.60;71.00;;;;;;4983992;28;20848;-75
2021/05/26 12:09:36;;;;;;;3.15;0.50;;;22.70;71.20;;;;;;4965096;28;20051;-75
2021/05/26 12:12:16;;;;;;;2.65;0.40;;;22.60;70.40;;;;;;4983736;28;20045;-76
2021/05/26 12:14:43;;;;;;;1.15;0.30;;;22.70;70.80;;;;;;4969393;28;20030;-75
2021/05/26 12:17:10;;;;;;;2.15;0.68;;;22.80;71.20;;;;;;4967961;28;20054;-75
2021/05/26 12:19:36;;;;;;;3.70;0.50;;;22.40;70.50;;;;;;4966725;28;20050;-75
2021/05/26 12:22:14;;;;;;;1.45;0.30;;;22.30;70.30;;;;;;4969761;28;20027;-75
2021/05/26 12:24:48;;;;;;;4.85;0.70;;;22.40;70.00;;;;;;4975612;28;20178;-75
2021/05/26 12:27:42;;;;;;;2.15;0.40;;;22.60;71.10;;;;;;4969462;28;20029;-75
2021/05/26 12:30:25;;;;;;;3.05;0.47;;;22.50;68.40;;;;;;4970595;28;20034;-75
2021/05/26 12:32:54;;;;;;;2.72;0.55;;;22.60;71.30;;;;;;4960877;28;20046;-75
2021/05/26 12:35:22;;;;;;;2.40;0.40;;;21.90;69.90;;;;;;4973779;28;20069;-76
2021/05/26 12:37:50;;;;;;;2.85;0.40;;;21.90;69.30;;;;;;4963667;28;20112;-76
2021/05/26 12:40:17;;;;;;;1.67;0.43;;;21.80;71.50;;;;;;4970341;28;20045;-74
2021/05/26 12:42:43;;;;;;;2.55;0.40;;;22.00;69.80;;;;;;4965688;28;20055;-75
2021/05/26 12:45:26;;;;;;;5.13;0.50;;;22.00;70.70;;;;;;4966047;28;20086;-75
2021/05/26 12:47:53;;;;;;;3.28;1.02;;;22.10;72.60;;;;;;4966995;28;20465;-75
2021/05/26 12:50:21;;;;;;;2.95;0.68;;;22.30;72.50;;;;;;4967956;28;20039;-75
2021/05/26 12:52:52;;;;;;;2.10;0.50;;;22.30;70.80;;;;;;4969839;28;20034;-76
2021/05/26 12:55:19;;;;;;;5.32;0.50;;;22.50;70.40;;;;;;4967819;28;20038;-75
2021/05/26 12:57:46;;;;;;;4.20;0.50;;;22.70;70.70;;;;;;4966382;28;20034;-75